Airport View

Enter AWOS ICAO identifier for current METAR.

ex. KFNL

KCIN 262330Z AUTO 24005KT M1/4SM FZFG OVC002 M01/M01 A2990 RMK AO2

26 Jan 2020 23:34

Frequency: 118.025

Phone: 712-792-2306

Other Area AWOS: KADU - KDNS - KPRO - KHNR

TAF AMD KFOD 262159Z 2622/2718 25007KT 2SM BR OVC004 FM270200 28005KT 1SM BR BKN004 FM270600 32005KT 1/2SM FG OVC003 TEMPO 2708/2712 1/4SM FG VV002 FM271200 34005KT 1SM BR OVC006 FM271500 34006KT 4SM BR SCT006